createdAt,value
2022-09-18T00:00:12.071Z,100812.68
2022-09-18T00:01:17.070Z,100810.73
2022-09-18T00:02:11.167Z,100813.92
2022-09-18T00:03:11.184Z,100813.33
2022-09-18T00:04:12.062Z,100815.09
2022-09-18T00:05:11.069Z,100816.77
2022-09-18T00:06:11.061Z,100817.17
2022-09-18T00:07:11.063Z,100813.01
2022-09-18T00:08:11.070Z,100813.11
2022-09-18T00:09:11.060Z,100813.51
2022-09-18T00:10:11.062Z,100815.64
2022-09-18T00:11:11.069Z,100818.43
2022-09-18T00:12:11.061Z,100816.79
2022-09-18T00:13:11.064Z,100816.70
2022-09-18T00:14:12.070Z,100812.43
2022-09-18T00:15:11.063Z,100815.50
2022-09-18T00:16:11.111Z,100811.88
2022-09-18T00:17:11.070Z,100812.42
2022-09-18T00:18:11.064Z,100814.17
2022-09-18T00:19:11.067Z,100813.18
2022-09-18T00:20:11.065Z,100812.02
2022-09-18T00:21:15.060Z,100813.07
2022-09-18T00:22:11.061Z,100814.81
2022-09-18T00:23:11.060Z,100813.56
2022-09-18T00:24:11.058Z,100811.09
2022-09-18T00:25:11.058Z,100810.20
2022-09-18T00:26:11.057Z,100811.79
2022-09-18T00:27:11.060Z,100812.46
2022-09-18T00:28:11.059Z,100810.54
2022-09-18T00:29:11.060Z,100809.34
2022-09-18T00:30:11.061Z,100809.77
2022-09-18T00:31:11.129Z,100812.35
2022-09-18T00:32:11.059Z,100812.33
2022-09-18T00:33:11.061Z,100809.82
2022-09-18T00:34:12.061Z,100808.42
2022-09-18T00:35:11.062Z,100812.80
2022-09-18T00:36:11.062Z,100809.65
2022-09-18T00:37:11.059Z,100812.84
2022-09-18T00:38:11.061Z,100811.24
2022-09-18T00:39:11.064Z,100814.15
2022-09-18T00:40:11.147Z,100814.41
2022-09-18T00:41:15.061Z,100810.68
2022-09-18T00:42:14.073Z,100809.42
2022-09-18T00:43:19.063Z,100811.05
2022-09-18T00:44:19.057Z,100807.22
2022-09-18T00:45:11.066Z,100812.14
2022-09-18T00:46:21.113Z,100807.48
2022-09-18T00:47:18.062Z,100806.88
2022-09-18T00:48:11.060Z,100805.34
2022-09-18T00:49:18.064Z,100809.89
2022-09-18T00:50:20.062Z,100812.94
2022-09-18T00:51:11.061Z,100814.04
2022-09-18T00:52:11.061Z,100810.55
2022-09-18T00:53:11.061Z,100809.89
2022-09-18T00:54:20.066Z,100809.73
2022-09-18T00:55:11.063Z,100809.59
2022-09-18T00:56:12.059Z,100809.46
2022-09-18T00:57:12.063Z,100807.39
2022-09-18T00:58:11.067Z,100806.02
2022-09-18T00:59:12.059Z,100805.23
2022-09-18T01:00:11.064Z,100805.61
2022-09-18T01:01:12.097Z,100805.01
2022-09-18T01:02:11.116Z,100804.18
2022-09-18T01:03:11.068Z,100804.88
2022-09-18T01:04:13.062Z,100803.34
2022-09-18T01:05:11.061Z,100805.09
2022-09-18T01:06:16.069Z,100804.01
2022-09-18T01:07:21.064Z,100798.46
2022-09-18T01:08:19.066Z,100798.86
2022-09-18T01:09:27.967Z,100796.58
2022-09-18T01:10:21.099Z,100799.11
2022-09-18T01:11:19.065Z,100800.23
2022-09-18T01:12:19.064Z,100797.75
2022-09-18T01:13:19.063Z,100800.78
2022-09-18T01:14:19.063Z,100793.55
2022-09-18T01:15:19.064Z,100797.62
2022-09-18T01:16:19.157Z,100797.33
2022-09-18T01:17:19.072Z,100797.23
2022-09-18T01:18:21.067Z,100794.61
2022-09-18T01:19:21.065Z,100794.59
2022-09-18T01:20:21.061Z,100793.35
2022-09-18T01:21:17.059Z,100790.39
2022-09-18T01:22:19.065Z,100787.88
2022-09-18T01:23:21.058Z,100789.37
2022-09-18T01:24:19.057Z,100786.63
2022-09-18T01:25:21.056Z,100789.64
2022-09-18T01:26:19.059Z,100788.47
2022-09-18T01:27:17.108Z,100787.19
2022-09-18T01:28:20.062Z,100785.10
2022-09-18T01:29:19.065Z,100785.00
2022-09-18T01:30:11.062Z,100783.64
2022-09-18T01:31:18.116Z,100785.34
2022-09-18T01:32:18.061Z,100783.03
2022-09-18T01:33:19.059Z,100780.53
2022-09-18T01:34:21.056Z,100783.28
2022-09-18T01:35:40.105Z,100780.44
2022-09-18T01:36:15.082Z,100779.08
2022-09-18T01:37:21.062Z,100781.34
2022-09-18T01:38:19.058Z,100781.67
2022-09-18T01:39:20.056Z,100782.93
2022-09-18T01:40:17.122Z,100782.26
2022-09-18T01:41:15.068Z,100781.11
2022-09-18T01:42:12.060Z,100784.16
2022-09-18T01:43:14.056Z,100781.79
2022-09-18T01:44:14.061Z,100778.55
2022-09-18T01:45:12.062Z,100778.11
2022-09-18T01:46:14.114Z,100775.41
2022-09-18T01:47:13.061Z,100773.77
2022-09-18T01:48:12.063Z,100775.54
2022-09-18T01:49:15.061Z,100773.20
2022-09-18T01:50:11.066Z,100773.84
2022-09-18T01:51:18.071Z,100770.06
2022-09-18T01:52:22.062Z,100771.54
2022-09-18T01:53:21.060Z,100774.04
2022-09-18T01:54:14.065Z,100770.77
2022-09-18T01:55:15.070Z,100772.29
2022-09-18T01:56:17.063Z,100771.18
2022-09-18T01:57:17.062Z,100770.54
2022-09-18T01:58:13.064Z,100770.57
2022-09-18T01:59:14.065Z,100770.19
2022-09-18T02:00:13.064Z,100771.94
2022-09-18T02:01:14.089Z,100771.09
2022-09-18T02:02:16.222Z,100769.93
2022-09-18T02:03:17.065Z,100766.54
2022-09-18T02:04:16.063Z,100764.61
2022-09-18T02:05:13.064Z,100763.84
2022-09-18T02:06:17.069Z,100763.98
2022-09-18T02:07:19.072Z,100763.73
2022-09-18T02:08:21.061Z,100765.03
2022-09-18T02:09:11.062Z,100764.46
2022-09-18T02:10:12.064Z,100764.60
2022-09-18T02:11:13.065Z,100761.81
2022-09-18T02:12:12.062Z,100763.29
2022-09-18T02:13:13.063Z,100761.03
2022-09-18T02:14:16.066Z,100756.70
2022-09-18T02:15:12.062Z,100756.03
2022-09-18T02:16:18.166Z,100757.38
2022-09-18T02:17:17.077Z,100758.66
2022-09-18T02:18:15.064Z,100753.89
2022-09-18T02:19:19.062Z,100752.79
2022-09-18T02:20:22.059Z,100749.24
2022-09-18T02:21:13.063Z,100752.45
2022-09-18T02:22:13.058Z,100752.00
2022-09-18T02:23:11.057Z,100750.02
2022-09-18T02:24:12.056Z,100750.26
2022-09-18T02:25:13.058Z,100752.48
2022-09-18T02:26:11.056Z,100755.33
2022-09-18T02:27:12.060Z,100753.03
2022-09-18T02:28:11.066Z,100755.41
2022-09-18T02:29:11.060Z,100755.61
2022-09-18T02:30:11.056Z,100757.70
2022-09-18T02:31:11.127Z,100752.94
2022-09-18T02:32:11.060Z,100749.74
2022-09-18T02:33:20.060Z,100747.75
2022-09-18T02:34:12.057Z,100747.84
2022-09-18T02:35:11.081Z,100748.32
2022-09-18T02:36:19.057Z,100749.51
2022-09-18T02:37:21.059Z,100746.11
2022-09-18T02:38:19.068Z,100742.69
2022-09-18T02:39:21.060Z,100741.64
2022-09-18T02:40:21.133Z,100740.38
2022-09-18T02:41:19.056Z,100742.74
2022-09-18T02:42:19.060Z,100742.82
2022-09-18T02:43:21.072Z,100741.16
2022-09-18T02:44:19.060Z,100738.45
2022-09-18T02:45:21.057Z,100737.41
2022-09-18T02:46:19.095Z,100738.29
2022-09-18T02:47:19.062Z,100741.99
2022-09-18T02:48:21.067Z,100741.09
2022-09-18T02:49:19.062Z,100742.56
2022-09-18T02:50:23.061Z,100735.55
2022-09-18T02:51:19.059Z,100734.43
2022-09-18T02:52:19.056Z,100739.19
2022-09-18T02:53:21.060Z,100737.05
2022-09-18T02:54:18.085Z,100735.36
2022-09-18T02:55:17.067Z,100735.82
2022-09-18T02:56:22.059Z,100736.33
2022-09-18T02:57:17.057Z,100743.63
2022-09-18T02:58:17.061Z,100738.80
2022-09-18T02:59:16.078Z,100735.25
2022-09-18T03:00:11.064Z,100735.25
2022-09-18T03:01:11.126Z,100735.56
2022-09-18T03:02:11.184Z,100733.55
2022-09-18T03:03:14.060Z,100732.28
2022-09-18T03:04:13.064Z,100732.45
2022-09-18T03:05:11.069Z,100733.71
2022-09-18T03:06:11.064Z,100730.87
2022-09-18T03:07:11.061Z,100733.45
2022-09-18T03:08:11.061Z,100735.21
2022-09-18T03:09:11.065Z,100734.85
2022-09-18T03:10:11.062Z,100734.23
2022-09-18T03:11:11.067Z,100732.51
2022-09-18T03:12:11.065Z,100733.49
2022-09-18T03:13:11.061Z,100731.29
2022-09-18T03:14:11.061Z,100733.54
2022-09-18T03:15:11.065Z,100733.21
2022-09-18T03:16:11.159Z,100732.72
2022-09-18T03:17:11.063Z,100736.23
2022-09-18T03:18:11.071Z,100734.72
2022-09-18T03:19:11.061Z,100738.18
2022-09-18T03:20:11.066Z,100735.56
2022-09-18T03:21:11.066Z,100732.06
2022-09-18T03:22:11.059Z,100731.61
2022-09-18T03:23:11.055Z,100731.66
2022-09-18T03:24:11.060Z,100736.36
2022-09-18T03:25:11.058Z,100732.86
2022-09-18T03:26:11.054Z,100734.57
2022-09-18T03:27:11.061Z,100733.36
2022-09-18T03:28:11.060Z,100735.33
2022-09-18T03:29:11.054Z,100731.80
2022-09-18T03:30:11.074Z,100729.57
2022-09-18T03:31:11.136Z,100729.96
2022-09-18T03:32:11.057Z,100726.41
2022-09-18T03:33:11.061Z,100726.90
2022-09-18T03:34:11.061Z,100729.47
2022-09-18T03:35:11.058Z,100733.75
2022-09-18T03:36:11.059Z,100735.81
2022-09-18T03:37:11.071Z,100730.75
2022-09-18T03:38:11.057Z,100731.48
2022-09-18T03:39:11.059Z,100731.57
2022-09-18T03:40:11.137Z,100730.70
2022-09-18T03:41:11.058Z,100732.52
2022-09-18T03:42:11.060Z,100730.92
2022-09-18T03:43:11.061Z,100728.27
2022-09-18T03:44:11.059Z,100731.67
2022-09-18T03:45:11.060Z,100732.48
2022-09-18T03:46:11.080Z,100729.96
2022-09-18T03:47:11.059Z,100732.89
2022-09-18T03:48:11.059Z,100730.61
2022-09-18T03:49:11.062Z,100732.75
2022-09-18T03:50:11.059Z,100735.75
2022-09-18T03:51:11.059Z,100735.64
2022-09-18T03:52:11.063Z,100733.43
2022-09-18T03:53:12.060Z,100732.73
2022-09-18T03:54:11.062Z,100732.57
2022-09-18T03:55:11.070Z,100729.33
2022-09-18T03:56:11.060Z,100734.44
2022-09-18T03:57:11.062Z,100733.46
2022-09-18T03:58:11.070Z,100733.31
2022-09-18T03:59:11.060Z,100737.63
2022-09-18T04:00:11.065Z,100732.34
2022-09-18T04:01:11.068Z,100735.22
2022-09-18T04:02:11.120Z,100736.28
2022-09-18T04:03:11.143Z,100734.70
2022-09-18T04:04:11.076Z,100731.07
2022-09-18T04:05:11.067Z,100730.78
2022-09-18T04:06:11.064Z,100732.53
2022-09-18T04:07:11.071Z,100730.71
2022-09-18T04:08:11.060Z,100730.53
2022-09-18T04:09:11.064Z,100732.47
2022-09-18T04:10:11.070Z,100730.87
2022-09-18T04:11:11.063Z,100731.40
2022-09-18T04:12:11.066Z,100732.53
2022-09-18T04:13:11.069Z,100729.40
2022-09-18T04:14:11.066Z,100731.57
2022-09-18T04:15:11.070Z,100730.39
2022-09-18T04:16:11.142Z,100731.89
2022-09-18T04:17:11.069Z,100735.65
2022-09-18T04:18:11.060Z,100737.17
2022-09-18T04:19:11.066Z,100736.51
2022-09-18T04:20:11.065Z,100736.91
2022-09-18T04:21:11.053Z,100737.23
2022-09-18T04:22:11.060Z,100737.14
2022-09-18T04:23:11.058Z,100738.52
2022-09-18T04:24:11.056Z,100739.58
2022-09-18T04:25:11.063Z,100736.36
2022-09-18T04:26:13.059Z,100735.24
2022-09-18T04:27:11.057Z,100736.08
2022-09-18T04:28:11.060Z,100733.88
2022-09-18T04:29:11.059Z,100738.34
2022-09-18T04:30:11.058Z,100734.92
2022-09-18T04:31:11.123Z,100735.68
2022-09-18T04:32:11.064Z,100736.50
2022-09-18T04:33:11.058Z,100735.41
2022-09-18T04:34:11.059Z,100737.64
2022-09-18T04:35:11.060Z,100737.04
2022-09-18T04:36:11.058Z,100735.82
2022-09-18T04:37:11.066Z,100737.94
2022-09-18T04:38:11.065Z,100741.42
2022-09-18T04:39:11.058Z,100741.21
2022-09-18T04:40:11.155Z,100740.05
2022-09-18T04:41:11.069Z,100740.37
2022-09-18T04:42:11.058Z,100738.08
2022-09-18T04:43:11.061Z,100738.16
2022-09-18T04:44:11.067Z,100735.74
2022-09-18T04:45:11.062Z,100737.68
2022-09-18T04:46:11.108Z,100734.02
2022-09-18T04:47:11.067Z,100736.59
2022-09-18T04:48:11.062Z,100733.52
2022-09-18T04:49:11.067Z,100733.90
2022-09-18T04:50:12.069Z,100736.26
2022-09-18T04:51:11.063Z,100730.05
2022-09-18T04:52:11.057Z,100733.21
2022-09-18T04:53:11.068Z,100730.71
2022-09-18T04:54:11.062Z,100731.91
2022-09-18T04:55:11.056Z,100734.25
2022-09-18T04:56:11.063Z,100736.68
2022-09-18T04:57:11.064Z,100733.42
2022-09-18T04:58:11.057Z,100737.80
2022-09-18T04:59:11.071Z,100733.23
2022-09-18T05:00:11.069Z,100733.44
2022-09-18T05:01:11.140Z,100735.61
2022-09-18T05:02:11.104Z,100736.33
2022-09-18T05:03:11.063Z,100736.27
2022-09-18T05:04:11.058Z,100738.24
2022-09-18T05:05:11.069Z,100738.25
2022-09-18T05:06:11.062Z,100737.45
2022-09-18T05:07:11.059Z,100740.06
2022-09-18T05:08:11.064Z,100739.37
2022-09-18T05:09:11.063Z,100738.99
2022-09-18T05:10:12.059Z,100741.49
2022-09-18T05:11:11.061Z,100737.59
2022-09-18T05:12:11.063Z,100739.97
2022-09-18T05:13:11.063Z,100741.86
2022-09-18T05:14:11.063Z,100743.83
2022-09-18T05:15:11.064Z,100743.53
2022-09-18T05:16:11.135Z,100744.84
2022-09-18T05:17:11.063Z,100739.30
2022-09-18T05:18:11.834Z,100741.37
2022-09-18T05:19:11.061Z,100742.88
2022-09-18T05:20:11.065Z,100746.82
2022-09-18T05:21:11.067Z,100740.50
2022-09-18T05:22:11.057Z,100740.74
2022-09-18T05:23:11.061Z,100742.66
2022-09-18T05:24:11.070Z,100741.26
2022-09-18T05:25:11.058Z,100742.13
2022-09-18T05:26:11.062Z,100740.30
2022-09-18T05:27:11.070Z,100741.44
2022-09-18T05:28:11.059Z,100740.95
2022-09-18T05:29:11.063Z,100744.45
2022-09-18T05:30:11.070Z,100741.18
2022-09-18T05:31:11.101Z,100745.65
2022-09-18T05:32:11.062Z,100743.62
2022-09-18T05:33:11.063Z,100740.83
2022-09-18T05:34:11.063Z,100741.12
2022-09-18T05:35:11.060Z,100744.51
2022-09-18T05:36:11.062Z,100744.14
2022-09-18T05:37:11.063Z,100746.34
2022-09-18T05:38:11.061Z,100748.95
2022-09-18T05:39:15.476Z,100749.92
2022-09-18T05:40:13.786Z,100750.18
2022-09-18T05:41:11.062Z,100752.22
2022-09-18T05:42:11.064Z,100751.22
2022-09-18T05:43:11.069Z,100753.82
2022-09-18T05:44:11.059Z,100752.33
2022-09-18T05:45:11.061Z,100752.30
2022-09-18T05:46:11.117Z,100751.80
2022-09-18T05:47:11.060Z,100750.63
2022-09-18T05:48:11.063Z,100750.22
2022-09-18T05:49:11.070Z,100753.80
2022-09-18T05:50:11.064Z,100750.88
2022-09-18T05:51:11.058Z,100752.22
2022-09-18T05:52:11.065Z,100754.00
2022-09-18T05:53:15.063Z,100751.95
2022-09-18T05:54:11.061Z,100753.79
2022-09-18T05:55:11.066Z,100755.10
2022-09-18T05:56:11.064Z,100753.73
2022-09-18T05:57:11.063Z,100753.25
2022-09-18T05:58:13.062Z,100754.20
2022-09-18T05:59:11.064Z,100757.79
2022-09-18T06:00:11.064Z,100758.96
2022-09-18T06:01:11.063Z,100755.32
2022-09-18T06:02:11.120Z,100757.32
2022-09-18T06:03:13.254Z,100757.21
2022-09-18T06:04:11.067Z,100755.93
2022-09-18T06:05:11.079Z,100749.75
2022-09-18T06:06:11.061Z,100752.04
2022-09-18T06:07:11.065Z,100754.61
2022-09-18T06:08:11.109Z,100753.25
2022-09-18T06:09:11.065Z,100754.78
2022-09-18T06:10:11.067Z,100757.57
2022-09-18T06:11:11.066Z,100761.21
2022-09-18T06:12:11.064Z,100758.96
2022-09-18T06:13:11.067Z,100758.76
2022-09-18T06:14:11.072Z,100759.75
2022-09-18T06:15:11.067Z,100759.80
2022-09-18T06:16:11.142Z,100759.19
2022-09-18T06:17:11.067Z,100759.29
2022-09-18T06:18:11.067Z,100758.59
2022-09-18T06:19:11.067Z,100760.82
2022-09-18T06:20:11.068Z,100762.52
2022-09-18T06:21:11.071Z,100763.32
2022-09-18T06:22:11.072Z,100765.85
2022-09-18T06:23:11.080Z,100766.12
2022-09-18T06:24:11.069Z,100766.39
2022-09-18T06:25:11.071Z,100764.74
2022-09-18T06:26:14.773Z,100765.08
2022-09-18T06:27:11.072Z,100767.29
2022-09-18T06:28:11.065Z,100766.60
2022-09-18T06:29:11.073Z,100774.94
2022-09-18T06:30:11.072Z,100773.39
2022-09-18T06:31:11.113Z,100775.68
2022-09-18T06:32:11.073Z,100773.18
2022-09-18T06:33:11.071Z,100773.40
2022-09-18T06:34:11.071Z,100773.17
2022-09-18T06:35:11.072Z,100769.34
2022-09-18T06:36:13.071Z,100773.61
2022-09-18T06:37:13.071Z,100771.80
2022-09-18T06:38:11.073Z,100772.15
2022-09-18T06:39:11.072Z,100771.08
2022-09-18T06:40:11.113Z,100773.73
2022-09-18T06:41:11.075Z,100772.43
2022-09-18T06:42:11.072Z,100772.72
2022-09-18T06:43:11.068Z,100770.98
2022-09-18T06:44:11.073Z,100773.65
2022-09-18T06:45:11.072Z,100776.79
2022-09-18T06:46:12.122Z,100774.76
2022-09-18T06:47:11.074Z,100774.43
2022-09-18T06:48:11.072Z,100770.17
2022-09-18T06:49:11.068Z,100769.64
2022-09-18T06:50:11.075Z,100767.84
2022-09-18T06:51:11.079Z,100767.04
2022-09-18T06:52:11.072Z,100763.48
2022-09-18T06:53:12.661Z,100762.86
2022-09-18T06:54:11.073Z,100760.35
2022-09-18T06:55:11.071Z,100757.24
2022-09-18T06:56:11.077Z,100756.98
2022-09-18T06:57:11.074Z,100756.32
2022-09-18T06:58:11.070Z,100759.35
2022-09-18T06:59:11.073Z,100759.86
2022-09-18T07:00:11.079Z,100755.75
2022-09-18T07:01:11.148Z,100755.20
2022-09-18T07:02:18.678Z,100755.91
2022-09-18T07:03:13.111Z,100753.23
2022-09-18T07:04:11.075Z,100758.48
2022-09-18T07:05:11.074Z,100758.00
2022-09-18T07:06:11.076Z,100757.14
2022-09-18T07:07:11.078Z,100763.60
2022-09-18T07:08:11.073Z,100766.16
2022-09-18T07:09:11.076Z,100765.30
2022-09-18T07:10:11.074Z,100763.42
2022-09-18T07:11:11.074Z,100763.98
2022-09-18T07:12:11.073Z,100762.80
2022-09-18T07:13:11.075Z,100767.38
2022-09-18T07:14:11.073Z,100767.26
2022-09-18T07:15:11.073Z,100766.46
2022-09-18T07:16:11.179Z,100766.50
2022-09-18T07:17:15.344Z,100766.35
2022-09-18T07:18:13.282Z,100766.33
2022-09-18T07:19:11.082Z,100771.38
2022-09-18T07:20:11.073Z,100766.40
2022-09-18T07:21:11.060Z,100763.54
2022-09-18T07:22:11.068Z,100764.19
2022-09-18T07:23:11.060Z,100760.93
2022-09-18T07:24:11.062Z,100764.77
2022-09-18T07:25:12.066Z,100758.56
2022-09-18T07:26:11.060Z,100758.28
2022-09-18T07:27:11.055Z,100758.26
2022-09-18T07:28:12.067Z,100759.48
2022-09-18T07:29:11.060Z,100750.17
2022-09-18T07:30:11.055Z,100753.54
2022-09-18T07:31:11.113Z,100755.67
2022-09-18T07:32:11.060Z,100748.46
2022-09-18T07:33:11.055Z,100749.52
2022-09-18T07:34:12.061Z,100752.71
2022-09-18T07:35:11.061Z,100756.05
2022-09-18T07:36:11.058Z,100754.46
2022-09-18T07:37:11.060Z,100757.34
2022-09-18T07:38:11.060Z,100756.74
2022-09-18T07:39:11.058Z,100759.27
2022-09-18T07:40:11.113Z,100757.14
2022-09-18T07:41:11.062Z,100757.65
2022-09-18T07:42:11.060Z,100757.62
2022-09-18T07:43:11.071Z,100758.25
2022-09-18T07:44:11.062Z,100762.10
2022-09-18T07:45:11.060Z,100760.68
2022-09-18T07:46:11.109Z,100763.52
2022-09-18T07:47:11.061Z,100760.05
2022-09-18T07:48:11.060Z,100763.04
2022-09-18T07:49:11.061Z,100757.42
2022-09-18T07:50:11.061Z,100758.11
2022-09-18T07:51:11.061Z,100759.37
2022-09-18T07:52:11.061Z,100760.30
2022-09-18T07:53:11.063Z,100763.27
2022-09-18T07:54:11.058Z,100760.89
2022-09-18T07:55:11.063Z,100761.73
2022-09-18T07:56:11.063Z,100758.90
2022-09-18T07:57:11.063Z,100756.86
2022-09-18T07:58:11.069Z,100758.29
2022-09-18T07:59:11.062Z,100759.67
2022-09-18T08:00:11.062Z,100766.71
2022-09-18T08:01:11.065Z,100765.35
2022-09-18T08:02:11.191Z,100765.20
2022-09-18T08:03:12.170Z,100757.53
2022-09-18T08:04:11.062Z,100755.18
2022-09-18T08:05:11.065Z,100753.60
2022-09-18T08:06:11.061Z,100756.82
2022-09-18T08:07:11.064Z,100754.13
2022-09-18T08:08:11.072Z,100751.18
2022-09-18T08:09:11.063Z,100752.45
2022-09-18T08:10:11.065Z,100749.55
2022-09-18T08:11:11.070Z,100746.74
2022-09-18T08:12:11.061Z,100748.23
2022-09-18T08:13:11.065Z,100749.28
2022-09-18T08:14:11.071Z,100747.95
2022-09-18T08:15:11.065Z,100748.77
2022-09-18T08:16:11.151Z,100749.37
2022-09-18T08:17:11.067Z,100755.04
2022-09-18T08:18:11.067Z,100753.76
2022-09-18T08:19:11.061Z,100746.79
2022-09-18T08:20:11.066Z,100752.01
2022-09-18T08:21:11.062Z,100749.71
2022-09-18T08:22:11.056Z,100751.51
2022-09-18T08:23:11.063Z,100749.38
2022-09-18T08:24:11.061Z,100754.75
2022-09-18T08:25:11.059Z,100754.26
2022-09-18T08:26:11.064Z,100751.94
2022-09-18T08:27:11.063Z,100756.43
2022-09-18T08:28:11.061Z,100755.72
2022-09-18T08:29:11.064Z,100755.67
2022-09-18T08:30:11.061Z,100758.73
2022-09-18T08:31:11.116Z,100760.72
2022-09-18T08:32:11.061Z,100764.94
2022-09-18T08:33:11.063Z,100760.74
2022-09-18T08:34:11.062Z,100762.71
2022-09-18T08:35:11.064Z,100760.41
2022-09-18T08:36:11.068Z,100762.75
2022-09-18T08:37:11.062Z,100764.06
2022-09-18T08:38:11.064Z,100766.48
2022-09-18T08:39:11.069Z,100761.14
2022-09-18T08:40:11.109Z,100764.51
2022-09-18T08:41:19.066Z,100761.76
2022-09-18T08:42:25.311Z,100763.78
2022-09-18T08:43:21.873Z,100757.74
2022-09-18T08:44:17.063Z,100761.27
2022-09-18T08:45:21.069Z,100757.48
2022-09-18T08:46:18.144Z,100763.84
2022-09-18T08:47:19.065Z,100759.74
2022-09-18T08:48:19.074Z,100763.59
2022-09-18T08:49:21.071Z,100761.16
2022-09-18T08:50:19.175Z,100760.55
2022-09-18T08:51:21.066Z,100763.08
2022-09-18T08:52:19.062Z,100764.71
2022-09-18T08:53:17.074Z,100762.23
2022-09-18T08:54:21.066Z,100758.89
2022-09-18T08:55:23.067Z,100769.04
2022-09-18T08:56:16.060Z,100771.92
2022-09-18T08:57:19.064Z,100772.77
2022-09-18T08:58:14.077Z,100771.16
2022-09-18T08:59:17.092Z,100764.33
2022-09-18T09:00:21.063Z,100770.54
2022-09-18T09:01:14.121Z,100765.90
2022-09-18T09:02:24.878Z,100765.78
2022-09-18T09:03:23.080Z,100770.74
2022-09-18T09:04:16.063Z,100768.10
2022-09-18T09:05:15.064Z,100770.18
2022-09-18T09:06:19.068Z,100771.28
2022-09-18T09:07:21.068Z,100771.79
2022-09-18T09:08:19.066Z,100770.54
2022-09-18T09:09:21.477Z,100768.04
2022-09-18T09:10:21.067Z,100766.06
2022-09-18T09:11:21.068Z,100766.27
2022-09-18T09:12:19.074Z,100766.61
2022-09-18T09:13:19.068Z,100764.86
2022-09-18T09:14:34.292Z,100762.02
2022-09-18T09:15:21.926Z,100770.18
2022-09-18T09:16:20.197Z,100766.96
2022-09-18T09:17:21.069Z,100766.38
2022-09-18T09:18:21.079Z,100770.07
2022-09-18T09:19:19.068Z,100768.53
2022-09-18T09:20:19.082Z,100769.41
2022-09-18T09:21:19.061Z,100769.38
2022-09-18T09:22:17.060Z,100772.11
2022-09-18T09:23:18.060Z,100779.33
2022-09-18T09:24:19.057Z,100769.16
2022-09-18T09:25:19.055Z,100754.95
2022-09-18T09:26:18.059Z,100775.99
2022-09-18T09:27:21.068Z,100778.39
2022-09-18T09:28:16.814Z,100779.12
2022-09-18T09:29:20.057Z,100780.12
2022-09-18T09:30:15.056Z,100780.16
2022-09-18T09:31:12.144Z,100784.19
2022-09-18T09:32:23.061Z,100779.15
2022-09-18T09:33:21.058Z,100774.34
2022-09-18T09:34:18.062Z,100787.99
2022-09-18T09:35:19.065Z,100784.53
2022-09-18T09:36:15.064Z,100776.52
2022-09-18T09:37:15.073Z,100792.16
2022-09-18T09:38:19.061Z,100786.21
2022-09-18T09:39:19.067Z,100789.20
2022-09-18T09:40:23.125Z,100784.12
2022-09-18T09:41:19.065Z,100785.51
2022-09-18T09:42:19.058Z,100786.53
2022-09-18T09:43:19.062Z,100786.51
2022-09-18T09:44:19.068Z,100780.69
2022-09-18T09:45:17.064Z,100782.07
2022-09-18T09:46:22.130Z,100785.80
2022-09-18T09:47:21.058Z,100789.93
2022-09-18T09:48:21.067Z,100793.14
2022-09-18T09:49:21.066Z,100789.04
2022-09-18T09:50:21.070Z,100800.04
2022-09-18T09:51:21.062Z,100795.77
2022-09-18T09:52:18.061Z,100796.64
2022-09-18T09:53:12.062Z,100796.79
2022-09-18T09:54:13.067Z,100795.55
2022-09-18T09:55:19.062Z,100803.61
2022-09-18T09:56:19.062Z,100797.54
2022-09-18T09:57:21.060Z,100792.61
2022-09-18T09:58:19.063Z,100800.05
2022-09-18T09:59:19.065Z,100795.14
2022-09-18T10:00:20.071Z,100797.84
2022-09-18T10:01:21.132Z,100799.49
2022-09-18T10:02:19.112Z,100797.15
2022-09-18T10:03:19.066Z,100796.40
2022-09-18T10:04:21.067Z,100795.66
2022-09-18T10:05:19.076Z,100796.59
2022-09-18T10:06:19.066Z,100799.21
2022-09-18T10:07:17.063Z,100795.35
2022-09-18T10:08:21.068Z,100791.14
2022-09-18T10:09:21.068Z,100799.43
2022-09-18T10:10:19.081Z,100799.86
2022-09-18T10:11:15.066Z,100796.67
2022-09-18T10:12:19.064Z,100799.32
2022-09-18T10:13:16.071Z,100797.42
2022-09-18T10:14:19.072Z,100793.32
2022-09-18T10:15:19.066Z,100796.91
2022-09-18T10:16:16.187Z,100799.44
2022-09-18T10:17:11.064Z,100801.00
2022-09-18T10:18:18.073Z,100797.50
2022-09-18T10:19:15.067Z,100792.25
2022-09-18T10:20:16.069Z,100790.10
2022-09-18T10:21:17.064Z,100792.39
2022-09-18T10:22:13.076Z,100793.75
2022-09-18T10:23:20.060Z,100798.90
2022-09-18T10:24:21.057Z,100792.84
2022-09-18T10:25:17.060Z,100796.66
2022-09-18T10:26:19.064Z,100792.05
2022-09-18T10:27:13.066Z,100794.31
2022-09-18T10:28:13.060Z,100790.48
2022-09-18T10:29:11.055Z,100797.18
2022-09-18T10:30:14.116Z,100789.40
2022-09-18T10:31:11.141Z,100782.71
2022-09-18T10:32:11.063Z,100785.39
2022-09-18T10:33:19.060Z,100789.06
2022-09-18T10:34:19.067Z,100789.22
2022-09-18T10:35:19.060Z,100798.66
2022-09-18T10:36:19.076Z,100783.20
2022-09-18T10:37:15.064Z,100795.34
2022-09-18T10:38:19.064Z,100791.80
2022-09-18T10:39:18.084Z,100793.73
2022-09-18T10:40:20.123Z,100793.61
2022-09-18T10:41:18.063Z,100787.39
2022-09-18T10:42:16.060Z,100789.92
2022-09-18T10:43:20.064Z,100788.12
2022-09-18T10:44:21.071Z,100788.39
2022-09-18T10:45:19.063Z,100787.93
2022-09-18T10:46:11.107Z,100788.66
2022-09-18T10:47:21.063Z,100791.02
2022-09-18T10:48:20.068Z,100785.34
2022-09-18T10:49:17.078Z,100785.86
2022-09-18T10:50:18.061Z,100786.77
2022-09-18T10:51:17.062Z,100787.16
2022-09-18T10:52:18.084Z,100794.30
2022-09-18T10:53:21.071Z,100789.76
2022-09-18T10:54:15.074Z,100794.79
2022-09-18T10:55:16.060Z,100793.19
2022-09-18T10:56:17.062Z,100782.77
2022-09-18T10:57:21.064Z,100795.18
2022-09-18T10:58:15.065Z,100794.30
2022-09-18T10:59:19.065Z,100791.30
2022-09-18T11:00:25.123Z,100784.91
2022-09-18T11:01:11.188Z,100787.95
2022-09-18T11:02:17.139Z,100787.83
2022-09-18T11:03:20.073Z,100787.41
2022-09-18T11:04:15.065Z,100789.95
2022-09-18T11:05:21.071Z,100779.61
2022-09-18T11:06:16.068Z,100778.66
2022-09-18T11:07:12.068Z,100779.22
2022-09-18T11:08:16.065Z,100774.18
2022-09-18T11:09:11.080Z,100775.43
2022-09-18T11:10:11.150Z,100777.81
2022-09-18T11:11:19.066Z,100777.34
2022-09-18T11:12:19.062Z,100779.75
2022-09-18T11:13:19.061Z,100775.81
2022-09-18T11:14:18.068Z,100778.53
2022-09-18T11:15:16.073Z,100774.55
2022-09-18T11:16:11.119Z,100773.04
2022-09-18T11:17:19.064Z,100773.09
2022-09-18T11:18:15.066Z,100775.51
2022-09-18T11:19:21.075Z,100768.81
2022-09-18T11:20:19.071Z,100773.41
2022-09-18T11:21:11.066Z,100777.86
2022-09-18T11:22:19.068Z,100772.05
2022-09-18T11:23:19.074Z,100770.73
2022-09-18T11:24:19.066Z,100772.25